createdAt,value
2023-04-26T00:01:05.745Z,8.98
2023-04-26T00:03:33.236Z,9.03
2023-04-26T00:06:05.644Z,9.03
2023-04-26T00:08:32.126Z,8.98
2023-04-26T00:10:58.779Z,9.07
2023-04-26T00:13:25.336Z,9.07
2023-04-26T00:15:52.013Z,9.01
2023-04-26T00:18:18.908Z,9.00
2023-04-26T00:20:45.371Z,9.03
2023-04-26T00:23:12.035Z,8.97
2023-04-26T00:25:38.634Z,8.97
2023-04-26T00:28:05.099Z,8.94
2023-04-26T00:30:32.075Z,8.90
2023-04-26T00:32:58.553Z,8.85
2023-04-26T00:35:25.558Z,8.81
2023-04-26T00:37:52.202Z,8.79
2023-04-26T00:40:20.668Z,8.75
2023-04-26T00:42:47.156Z,8.74
2023-04-26T00:45:13.828Z,8.70
2023-04-26T00:47:40.846Z,8.66
2023-04-26T00:50:08.158Z,8.59
2023-04-26T00:52:34.985Z,8.55
2023-04-26T00:55:01.588Z,8.48
2023-04-26T00:57:28.068Z,8.37
2023-04-26T00:59:54.497Z,8.36
2023-04-26T01:02:21.059Z,8.34
2023-04-26T01:04:48.084Z,8.33
2023-04-26T01:07:14.506Z,8.18
2023-04-26T01:09:41.030Z,8.14
2023-04-26T01:12:08.720Z,8.13
2023-04-26T01:14:36.769Z,8.05
2023-04-26T01:17:03.961Z,8.00
2023-04-26T01:19:30.612Z,7.99
2023-04-26T01:21:57.012Z,7.95
2023-04-26T01:24:23.629Z,7.87
2023-04-26T01:26:50.197Z,7.84
2023-04-26T01:29:21.207Z,7.77
2023-04-26T01:31:48.876Z,7.72
2023-04-26T01:34:15.679Z,7.76
2023-04-26T01:36:42.658Z,7.79
2023-04-26T01:39:09.430Z,7.86
2023-04-26T01:41:35.912Z,7.95
2023-04-26T01:44:02.410Z,7.98
2023-04-26T01:46:29.135Z,7.99
2023-04-26T01:48:55.693Z,7.96
2023-04-26T01:51:22.182Z,7.95
2023-04-26T01:53:48.640Z,7.92
2023-04-26T01:56:15.213Z,7.87
2023-04-26T01:58:41.736Z,7.81
2023-04-26T02:01:09.400Z,7.74
2023-04-26T02:03:36.259Z,7.69
2023-04-26T02:06:03.262Z,7.68
2023-04-26T02:08:30.057Z,7.69
2023-04-26T02:10:56.530Z,7.74
2023-04-26T02:13:23.186Z,7.78
2023-04-26T02:15:49.928Z,7.81
2023-04-26T02:18:17.618Z,7.81
2023-04-26T02:20:45.665Z,7.87
2023-04-26T02:23:12.516Z,7.82
2023-04-26T02:25:39.353Z,7.81
2023-04-26T02:28:06.288Z,7.87
2023-04-26T02:30:32.983Z,7.92
2023-04-26T02:32:59.584Z,7.95
2023-04-26T02:35:26.711Z,7.96
2023-04-26T02:37:53.187Z,7.88
2023-04-26T02:40:19.949Z,7.86
2023-04-26T02:42:46.727Z,7.85
2023-04-26T02:45:13.321Z,7.86
2023-04-26T02:47:40.013Z,7.77
2023-04-26T02:50:07.895Z,7.79
2023-04-26T02:52:34.913Z,7.80
2023-04-26T02:55:02.303Z,7.80
2023-04-26T02:57:28.676Z,7.79
2023-04-26T02:59:55.766Z,7.81
2023-04-26T03:02:22.423Z,7.80
2023-04-26T03:04:49.233Z,7.79
2023-04-26T03:07:15.987Z,7.80
2023-04-26T03:09:42.721Z,7.84
2023-04-26T03:12:09.725Z,7.87
2023-04-26T03:14:36.370Z,7.84
2023-04-26T03:17:03.131Z,7.78
2023-04-26T03:19:29.719Z,7.78
2023-04-26T03:21:56.773Z,7.82
2023-04-26T03:24:23.674Z,7.76
2023-04-26T03:26:50.158Z,7.79
2023-04-26T03:29:17.139Z,7.78
2023-04-26T03:31:43.637Z,7.76
2023-04-26T03:34:10.314Z,7.81
2023-04-26T03:36:36.838Z,7.85
2023-04-26T03:39:03.927Z,7.80
2023-04-26T03:41:30.365Z,7.74
2023-04-26T03:43:56.848Z,7.65
2023-04-26T03:46:23.331Z,7.65
2023-04-26T03:48:50.072Z,7.67
2023-04-26T03:51:16.774Z,7.57
2023-04-26T03:53:43.194Z,7.48
2023-04-26T03:56:09.649Z,7.43
2023-04-26T03:58:36.169Z,7.33
2023-04-26T04:01:03.791Z,7.33
2023-04-26T04:03:30.635Z,7.34
2023-04-26T04:05:57.408Z,7.39
2023-04-26T04:08:23.824Z,7.36
2023-04-26T04:10:50.514Z,7.31
2023-04-26T04:13:17.006Z,7.37
2023-04-26T04:15:43.490Z,7.33
2023-04-26T04:18:09.979Z,7.22
2023-04-26T04:20:36.424Z,7.08
2023-04-26T04:23:04.394Z,6.94
2023-04-26T04:25:31.009Z,6.94
2023-04-26T04:27:58.287Z,6.98
2023-04-26T04:30:26.222Z,7.05
2023-04-26T04:32:52.866Z,7.10
2023-04-26T04:35:19.598Z,7.15
2023-04-26T04:37:46.067Z,7.24
2023-04-26T04:40:13.227Z,7.32
2023-04-26T04:42:39.757Z,7.41
2023-04-26T04:45:06.880Z,7.47
2023-04-26T04:47:34.073Z,7.55
2023-04-26T04:50:00.658Z,7.59
2023-04-26T04:52:27.152Z,7.60
2023-04-26T04:54:53.864Z,7.67
2023-04-26T04:57:20.304Z,7.74
2023-04-26T04:59:46.761Z,7.80
2023-04-26T05:02:13.485Z,7.80
2023-04-26T05:04:40.204Z,7.72
2023-04-26T05:07:07.073Z,7.60
2023-04-26T05:09:33.711Z,7.52
2023-04-26T05:12:00.427Z,7.43
2023-04-26T05:14:27.233Z,7.43
2023-04-26T05:16:54.597Z,7.40
2023-04-26T05:19:21.526Z,7.48
2023-04-26T05:21:47.964Z,7.60
2023-04-26T05:24:14.517Z,7.88
2023-04-26T05:26:40.956Z,8.03
2023-04-26T05:29:07.407Z,8.13
2023-04-26T05:31:33.828Z,8.20
2023-04-26T05:34:00.259Z,8.27
2023-04-26T05:36:29.962Z,8.42
2023-04-26T05:38:56.783Z,8.53
2023-04-26T05:41:23.212Z,8.45
2023-04-26T05:43:49.716Z,8.45
2023-04-26T05:46:16.237Z,8.33
2023-04-26T05:48:42.747Z,8.32
2023-04-26T05:51:09.176Z,8.35
2023-04-26T05:53:36.148Z,8.41
2023-04-26T05:56:02.571Z,8.66
2023-04-26T05:58:29.021Z,9.08
2023-04-26T06:00:56.048Z,9.10
2023-04-26T06:03:22.785Z,9.23
2023-04-26T06:05:49.464Z,9.13
2023-04-26T06:08:16.484Z,9.13
2023-04-26T06:10:42.894Z,9.15
2023-04-26T06:13:09.428Z,9.26
2023-04-26T06:15:35.930Z,9.39
2023-04-26T06:18:02.417Z,9.47
2023-04-26T06:20:29.042Z,9.64
2023-04-26T06:22:55.761Z,9.58
2023-04-26T06:25:22.145Z,9.52
2023-04-26T06:27:48.620Z,9.67
2023-04-26T06:30:15.944Z,9.82
2023-04-26T06:32:42.607Z,9.79
2023-04-26T06:35:09.913Z,9.87
2023-04-26T06:37:37.477Z,10.05
2023-04-26T06:40:04.266Z,10.34
2023-04-26T06:42:30.688Z,10.48
2023-04-26T06:44:57.210Z,10.60
2023-04-26T06:47:23.903Z,10.69
2023-04-26T06:49:50.327Z,10.83
2023-04-26T06:52:16.965Z,10.97
2023-04-26T06:54:56.073Z,11.12
2023-04-26T06:57:23.711Z,11.32
2023-04-26T06:59:50.067Z,11.54
2023-04-26T07:02:16.616Z,11.67
2023-04-26T07:04:44.026Z,11.89
2023-04-26T07:07:13.299Z,11.87
2023-04-26T07:09:40.919Z,11.96
2023-04-26T07:12:07.517Z,12.03
2023-04-26T07:14:37.094Z,12.09
2023-04-26T07:17:04.453Z,12.34
2023-04-26T07:19:31.226Z,12.45
2023-04-26T07:21:57.614Z,12.42
2023-04-26T07:24:24.078Z,11.96
2023-04-26T07:26:50.616Z,12.08
2023-04-26T07:29:18.874Z,11.90
2023-04-26T07:31:45.987Z,12.28
2023-04-26T07:34:13.081Z,12.40
2023-04-26T07:36:39.678Z,12.81
2023-04-26T07:39:06.953Z,12.82
2023-04-26T07:41:33.581Z,12.74
2023-04-26T07:44:00.084Z,13.28
2023-04-26T07:46:26.534Z,13.76
2023-04-26T07:48:53.090Z,14.13
2023-04-26T07:51:19.577Z,13.44
2023-04-26T07:53:46.329Z,14.45
2023-04-26T07:56:12.995Z,14.23
2023-04-26T07:58:39.626Z,14.49
2023-04-26T08:01:06.616Z,15.32
2023-04-26T08:03:33.476Z,15.96
2023-04-26T08:06:00.640Z,15.83
2023-04-26T08:08:27.614Z,15.80
2023-04-26T08:10:55.610Z,16.37
2023-04-26T08:13:22.615Z,16.45
2023-04-26T08:15:49.058Z,16.14
2023-04-26T08:18:15.522Z,16.14
2023-04-26T08:20:42.005Z,16.24
2023-04-26T08:23:08.576Z,16.70
2023-04-26T08:25:34.982Z,17.31
2023-04-26T08:28:02.045Z,17.40
2023-04-26T08:30:29.008Z,17.13
2023-04-26T08:32:56.227Z,16.40
2023-04-26T08:35:22.698Z,16.53
2023-04-26T08:37:49.316Z,16.83
2023-04-26T08:40:23.673Z,16.92
2023-04-26T08:42:52.453Z,16.88
2023-04-26T08:45:20.941Z,17.34
2023-04-26T08:47:53.199Z,17.44
2023-04-26T08:50:22.765Z,17.88
2023-04-26T08:52:51.666Z,18.69
2023-04-26T08:55:22.536Z,19.74
2023-04-26T08:57:50.703Z,20.08
2023-04-26T09:00:18.243Z,19.85
2023-04-26T09:02:51.451Z,19.54
2023-04-26T09:05:23.619Z,19.32
2023-04-26T09:07:51.388Z,19.73
2023-04-26T09:10:22.141Z,19.43
2023-04-26T09:12:53.694Z,19.55
2023-04-26T09:15:27.615Z,18.62
2023-04-26T09:17:54.130Z,18.57
2023-04-26T09:20:27.786Z,17.09
2023-04-26T09:23:03.584Z,17.60
2023-04-26T09:25:31.335Z,18.33
2023-04-26T09:27:59.301Z,19.07
2023-04-26T09:30:27.160Z,19.41
2023-04-26T09:32:57.089Z,20.47
2023-04-26T09:35:34.902Z,20.13
2023-04-26T09:38:12.355Z,20.86
2023-04-26T09:40:45.128Z,21.24
2023-04-26T09:43:13.755Z,20.32
2023-04-26T09:45:49.093Z,19.20
2023-04-26T09:48:26.940Z,18.89
2023-04-26T09:50:55.416Z,18.08
2023-04-26T09:53:39.593Z,17.28
2023-04-26T09:56:10.223Z,16.82
2023-04-26T09:58:38.721Z,16.34
2023-04-26T10:01:06.959Z,16.34
2023-04-26T10:03:37.300Z,17.12
2023-04-26T10:06:05.265Z,17.46
2023-04-26T10:08:32.932Z,17.69
2023-04-26T10:11:02.270Z,17.94
2023-04-26T10:13:28.778Z,17.94
2023-04-26T10:15:56.499Z,17.94
2023-04-26T10:18:23.088Z,17.87
2023-04-26T10:20:53.774Z,18.16
2023-04-26T10:23:22.419Z,17.74
2023-04-26T10:25:49.523Z,17.64
2023-04-26T10:28:16.325Z,18.05
2023-04-26T10:30:56.085Z,18.38
2023-04-26T10:33:23.888Z,18.48
2023-04-26T10:36:05.522Z,18.84
2023-04-26T10:38:33.205Z,18.61
2023-04-26T10:41:29.189Z,18.79
2023-04-26T10:43:56.057Z,19.13
2023-04-26T10:46:39.837Z,19.62
2023-04-26T10:49:14.787Z,19.58
2023-04-26T10:51:41.429Z,19.22
2023-04-26T10:54:07.920Z,19.22
2023-04-26T10:56:41.268Z,19.47
2023-04-26T10:59:36.054Z,19.42
2023-04-26T11:02:10.986Z,19.43
2023-04-26T11:04:52.949Z,19.33
2023-04-26T11:07:37.833Z,19.46
2023-04-26T11:10:09.600Z,19.54
2023-04-26T11:12:36.779Z,19.64
2023-04-26T11:15:03.488Z,18.69
2023-04-26T11:17:37.228Z,18.30
2023-04-26T11:20:09.363Z,18.13
2023-04-26T11:22:39.968Z,18.15
2023-04-26T11:25:06.761Z,18.36
2023-04-26T11:27:33.492Z,18.28
2023-04-26T11:30:04.413Z,18.42
2023-04-26T11:32:31.094Z,18.87
2023-04-26T11:35:01.016Z,18.95
2023-04-26T11:37:27.657Z,18.80
2023-04-26T11:39:54.087Z,18.84
2023-04-26T11:42:25.214Z,18.04
2023-04-26T11:44:52.518Z,17.68
2023-04-26T11:47:19.568Z,18.48
2023-04-26T11:49:47.102Z,19.06
2023-04-26T11:52:14.169Z,19.24
2023-04-26T11:54:40.713Z,19.68
2023-04-26T11:57:18.284Z,20.15
2023-04-26T11:59:45.170Z,19.88
2023-04-26T12:02:12.247Z,20.21
2023-04-26T12:04:41.266Z,20.30
2023-04-26T12:07:08.510Z,18.54
2023-04-26T12:09:35.365Z,18.15
2023-04-26T12:12:04.087Z,18.62
2023-04-26T12:14:32.350Z,18.67
2023-04-26T12:17:00.532Z,19.16
2023-04-26T12:19:26.979Z,19.35
2023-04-26T12:21:54.540Z,19.00
2023-04-26T12:24:26.141Z,19.10
2023-04-26T12:26:52.936Z,18.86
2023-04-26T12:29:19.417Z,18.90
2023-04-26T12:31:46.672Z,18.54
2023-04-26T12:34:13.242Z,19.17
2023-04-26T12:36:43.443Z,19.25
2023-04-26T12:39:14.454Z,19.61
2023-04-26T12:41:41.889Z,19.68
2023-04-26T12:44:09.223Z,18.89
2023-04-26T12:46:36.409Z,19.08
2023-04-26T12:49:03.663Z,18.15
2023-04-26T12:51:30.334Z,17.58
2023-04-26T12:53:56.909Z,17.48
2023-04-26T12:56:24.196Z,17.72
2023-04-26T12:58:50.703Z,17.60
2023-04-26T13:01:17.333Z,17.80
2023-04-26T13:03:44.337Z,18.64
2023-04-26T13:06:11.180Z,18.75
2023-04-26T13:08:37.587Z,18.78
2023-04-26T13:11:04.195Z,18.83
2023-04-26T13:13:42.328Z,19.09
2023-04-26T13:16:10.003Z,18.50
2023-04-26T13:18:36.535Z,18.46
2023-04-26T13:21:03.035Z,18.50
2023-04-26T13:23:29.518Z,18.52
2023-04-26T13:25:55.973Z,18.13
2023-04-26T13:28:22.595Z,18.52
2023-04-26T13:30:48.961Z,19.19
2023-04-26T13:33:15.486Z,19.91
2023-04-26T13:35:42.049Z,20.53
2023-04-26T13:38:08.509Z,20.56
2023-04-26T13:40:36.984Z,20.42
2023-04-26T13:43:03.935Z,20.55
2023-04-26T13:45:30.493Z,19.78
2023-04-26T13:47:57.162Z,18.78
2023-04-26T13:50:24.265Z,18.18
2023-04-26T13:52:52.878Z,18.65
2023-04-26T13:55:19.305Z,17.72
2023-04-26T13:57:45.685Z,18.15
2023-04-26T14:00:14.034Z,18.15
2023-04-26T14:02:40.785Z,18.49
2023-04-26T14:05:09.208Z,18.69
2023-04-26T14:07:35.957Z,18.83
2023-04-26T14:10:02.516Z,18.62
2023-04-26T14:12:29.484Z,18.20
2023-04-26T14:14:55.901Z,18.02
2023-04-26T14:17:22.409Z,17.37
2023-04-26T14:19:48.873Z,17.84
2023-04-26T14:22:17.564Z,18.13
2023-04-26T14:24:44.088Z,18.48
2023-04-26T14:27:10.494Z,18.67
2023-04-26T14:29:36.879Z,18.95
2023-04-26T14:32:03.400Z,19.19
2023-04-26T14:34:29.855Z,19.17
2023-04-26T14:37:01.380Z,19.38
2023-04-26T14:39:28.094Z,19.30
2023-04-26T14:41:56.320Z,19.14
2023-04-26T14:44:26.207Z,19.03
2023-04-26T14:46:53.044Z,19.11
2023-04-26T14:49:19.756Z,19.13
2023-04-26T14:51:46.245Z,19.05
2023-04-26T14:54:12.809Z,19.11
2023-04-26T14:56:39.179Z,18.85
2023-04-26T14:59:05.635Z,18.72
2023-04-26T15:01:32.276Z,18.23
2023-04-26T15:04:00.455Z,18.21
2023-04-26T15:06:27.651Z,18.47
2023-04-26T15:08:54.123Z,18.64
2023-04-26T15:11:21.164Z,18.53
2023-04-26T15:13:47.692Z,18.10
2023-04-26T15:16:14.416Z,17.94
2023-04-26T15:18:41.112Z,18.18
2023-04-26T15:21:07.454Z,18.27
2023-04-26T15:23:33.798Z,18.20
2023-04-26T15:26:04.356Z,17.97
2023-04-26T15:28:31.048Z,18.14
2023-04-26T15:31:04.643Z,18.50
2023-04-26T15:33:31.061Z,18.67
2023-04-26T15:35:57.531Z,18.25
2023-04-26T15:38:24.044Z,17.76
2023-04-26T15:40:53.922Z,18.03
2023-04-26T15:43:20.612Z,18.24
2023-04-26T15:45:49.232Z,18.43
2023-04-26T15:48:15.972Z,18.35
2023-04-26T15:50:42.653Z,18.45
2023-04-26T15:53:09.210Z,18.44
2023-04-26T15:55:35.980Z,18.53
2023-04-26T15:58:02.474Z,18.65
2023-04-26T16:00:29.222Z,18.58
2023-04-26T16:02:55.809Z,17.86
2023-04-26T16:05:22.374Z,17.92
2023-04-26T16:07:48.835Z,17.88
2023-04-26T16:10:15.200Z,17.70
2023-04-26T16:12:43.551Z,17.57
2023-04-26T16:15:10.428Z,17.34
2023-04-26T16:17:37.450Z,17.11
2023-04-26T16:20:05.932Z,17.11
2023-04-26T16:22:33.086Z,17.07
2023-04-26T16:24:59.684Z,17.29
2023-04-26T16:27:27.379Z,17.31
2023-04-26T16:29:54.395Z,17.42
2023-04-26T16:32:21.186Z,17.48
2023-04-26T16:34:47.764Z,17.62
2023-04-26T16:37:14.740Z,17.62
2023-04-26T16:39:41.372Z,17.37
2023-04-26T16:42:07.868Z,17.10
2023-04-26T16:44:34.285Z,17.23
2023-04-26T16:47:01.659Z,17.12
2023-04-26T16:49:28.069Z,16.95
2023-04-26T16:51:58.872Z,16.96
2023-04-26T16:54:26.220Z,17.05
2023-04-26T16:56:52.969Z,17.06
2023-04-26T16:59:19.642Z,16.76
2023-04-26T17:01:47.478Z,16.89
2023-04-26T17:04:14.155Z,17.07
2023-04-26T17:06:40.795Z,17.10
2023-04-26T17:09:08.396Z,17.02
2023-04-26T17:11:37.413Z,16.79
2023-04-26T17:14:04.296Z,16.61
2023-04-26T17:16:30.847Z,16.46
2023-04-26T17:18:58.319Z,16.24
2023-04-26T17:21:24.905Z,16.11
2023-04-26T17:23:51.406Z,15.98
2023-04-26T17:26:18.021Z,15.86
2023-04-26T17:28:44.464Z,15.75
2023-04-26T17:31:10.897Z,15.48
2023-04-26T17:33:37.500Z,15.19
2023-04-26T17:36:04.344Z,15.13
2023-04-26T17:38:30.822Z,14.93
2023-04-26T17:40:57.252Z,14.89
2023-04-26T17:43:23.712Z,14.67
2023-04-26T17:45:50.286Z,14.61
2023-04-26T17:48:17.047Z,14.58
2023-04-26T17:50:43.752Z,14.53
2023-04-26T17:53:10.278Z,14.43
2023-04-26T17:55:37.449Z,14.32
2023-04-26T17:58:04.165Z,14.12
2023-04-26T18:00:30.612Z,13.99
2023-04-26T18:02:58.205Z,13.93
2023-04-26T18:05:25.118Z,13.88
2023-04-26T18:07:51.794Z,13.99
2023-04-26T18:10:18.415Z,13.97
2023-04-26T18:12:44.968Z,13.88
2023-04-26T18:15:12.328Z,13.92
2023-04-26T18:17:38.798Z,13.80
2023-04-26T18:20:06.679Z,13.65
2023-04-26T18:22:33.290Z,13.53
2023-04-26T18:24:59.740Z,13.55
2023-04-26T18:27:26.205Z,13.69
2023-04-26T18:29:52.704Z,13.55
2023-04-26T18:32:19.224Z,13.59
2023-04-26T18:34:46.478Z,13.63
2023-04-26T18:37:13.044Z,13.64
2023-04-26T18:39:39.456Z,13.32
2023-04-26T18:42:06.820Z,13.22
2023-04-26T18:44:33.277Z,13.27
2023-04-26T18:46:59.748Z,13.18
2023-04-26T18:49:29.274Z,13.15
2023-04-26T18:51:57.269Z,13.13
2023-04-26T18:54:23.795Z,13.15
2023-04-26T18:56:50.356Z,12.96
2023-04-26T18:59:17.253Z,13.00
2023-04-26T19:01:43.722Z,13.04
2023-04-26T19:04:10.398Z,12.99
2023-04-26T19:06:37.003Z,13.09
2023-04-26T19:09:05.808Z,13.05
2023-04-26T19:11:32.365Z,13.16
2023-04-26T19:13:58.819Z,13.17
2023-04-26T19:16:25.476Z,13.13
2023-04-26T19:18:52.041Z,12.98
2023-04-26T19:21:18.531Z,13.01
2023-04-26T19:23:46.764Z,12.93
2023-04-26T19:26:13.328Z,13.04
2023-04-26T19:28:40.362Z,13.02
2023-04-26T19:31:06.856Z,13.04
2023-04-26T19:33:33.442Z,13.05
2023-04-26T19:35:59.952Z,13.07
2023-04-26T19:38:26.522Z,13.08
2023-04-26T19:40:53.309Z,13.04
2023-04-26T19:43:20.177Z,13.05
2023-04-26T19:45:46.920Z,13.07
2023-04-26T19:48:13.399Z,13.08
2023-04-26T19:50:46.171Z,13.09
2023-04-26T19:53:14.104Z,13.07
2023-04-26T19:55:42.170Z,13.05
2023-04-26T19:58:10.428Z,13.02
2023-04-26T20:00:38.040Z,12.99
2023-04-26T20:03:05.314Z,12.97
2023-04-26T20:05:32.072Z,12.92
2023-04-26T20:07:58.479Z,12.89
2023-04-26T20:10:24.984Z,12.88
2023-04-26T20:12:51.815Z,12.90
2023-04-26T20:15:18.489Z,12.89
2023-04-26T20:17:44.976Z,12.89
2023-04-26T20:20:12.662Z,12.88
2023-04-26T20:22:40.047Z,12.73
2023-04-26T20:25:07.158Z,12.76
2023-04-26T20:27:34.852Z,12.61
2023-04-26T20:30:01.394Z,12.58
2023-04-26T20:32:27.897Z,12.60
2023-04-26T20:34:54.446Z,12.62
2023-04-26T20:37:21.800Z,12.63
2023-04-26T20:39:48.921Z,12.66
2023-04-26T20:42:15.606Z,12.65
2023-04-26T20:44:42.434Z,12.64
2023-04-26T20:47:08.966Z,12.65
2023-04-26T20:49:35.420Z,12.64
2023-04-26T20:52:01.854Z,12.62
2023-04-26T20:54:28.246Z,12.59
2023-04-26T20:56:54.702Z,12.58
2023-04-26T20:59:21.101Z,12.55
2023-04-26T21:01:47.647Z,12.54
2023-04-26T21:04:14.227Z,12.47
2023-04-26T21:06:40.846Z,12.42
2023-04-26T21:09:07.533Z,12.41
2023-04-26T21:11:34.196Z,12.38
2023-04-26T21:14:00.967Z,12.28
2023-04-26T21:16:27.704Z,12.22
2023-04-26T21:18:54.087Z,12.08
2023-04-26T21:21:20.530Z,12.03
2023-04-26T21:23:46.975Z,12.01
2023-04-26T21:26:13.566Z,11.98
2023-04-26T21:28:40.022Z,11.91
2023-04-26T21:31:07.215Z,11.92
2023-04-26T21:33:34.412Z,11.93
2023-04-26T21:36:01.016Z,11.94
2023-04-26T21:38:27.616Z,11.91
2023-04-26T21:40:54.000Z,11.88
2023-04-26T21:43:21.617Z,11.84
2023-04-26T21:45:49.960Z,11.81
2023-04-26T21:48:16.617Z,11.81
2023-04-26T21:50:43.272Z,11.75
2023-04-26T21:53:09.840Z,11.64
2023-04-26T21:55:36.210Z,11.64
2023-04-26T21:58:02.768Z,11.62
2023-04-26T22:00:29.254Z,11.64
2023-04-26T22:02:56.062Z,11.60
2023-04-26T22:05:25.603Z,11.56
2023-04-26T22:07:53.612Z,11.50
2023-04-26T22:10:20.328Z,11.47
2023-04-26T22:12:46.716Z,11.45
2023-04-26T22:15:13.224Z,11.42
2023-04-26T22:17:39.667Z,11.40
2023-04-26T22:20:06.810Z,11.42
2023-04-26T22:22:33.304Z,11.43
2023-04-26T22:24:59.781Z,11.42
2023-04-26T22:27:26.270Z,11.40
2023-04-26T22:29:52.614Z,11.35
2023-04-26T22:32:19.464Z,11.31
2023-04-26T22:34:46.109Z,11.27
2023-04-26T22:37:20.908Z,11.23
2023-04-26T22:39:48.396Z,11.21
2023-04-26T22:42:14.865Z,11.22
2023-04-26T22:44:41.967Z,11.22
2023-04-26T22:47:08.497Z,11.18
2023-04-26T22:49:34.992Z,11.15
2023-04-26T22:52:07.826Z,11.12
2023-04-26T22:54:37.378Z,11.08
2023-04-26T22:57:05.464Z,11.06
2023-04-26T22:59:34.179Z,11.04
2023-04-26T23:02:01.483Z,11.02
2023-04-26T23:04:28.019Z,11.01
2023-04-26T23:06:54.715Z,10.97
2023-04-26T23:09:21.342Z,10.95
2023-04-26T23:11:47.943Z,10.92
2023-04-26T23:14:15.796Z,10.97
2023-04-26T23:16:42.541Z,10.96
2023-04-26T23:19:09.646Z,10.99
2023-04-26T23:21:36.278Z,10.97
2023-04-26T23:24:02.972Z,10.98
2023-04-26T23:26:29.399Z,10.96
2023-04-26T23:28:55.903Z,10.93
2023-04-26T23:31:22.454Z,10.90
2023-04-26T23:33:49.033Z,10.90
2023-04-26T23:36:15.440Z,10.86
2023-04-26T23:38:41.983Z,10.86
2023-04-26T23:41:08.437Z,10.87
2023-04-26T23:43:35.072Z,10.87
2023-04-26T23:46:01.609Z,10.84
2023-04-26T23:48:28.108Z,10.83
2023-04-26T23:50:54.547Z,10.75
2023-04-26T23:53:20.960Z,10.71
2023-04-26T23:55:47.420Z,10.69
2023-04-26T23:58:13.830Z,10.69
